sensor_id;sensor_type;location;lat;lon;timestamp;P1;durP1;ratioP1;P2;durP2;ratioP2
22861;SDS011;11598;50.652;6.172;2022-12-24T00:03:13;26.27;;;3.90;;
22861;SDS011;11598;50.652;6.172;2022-12-24T00:13:13;33.13;;;3.35;;
22861;SDS011;11598;50.652;6.172;2022-12-24T00:23:14;27.00;;;3.95;;
22861;SDS011;11598;50.652;6.172;2022-12-24T00:33:15;26.25;;;3.35;;
22861;SDS011;11598;50.652;6.172;2022-12-24T00:43:16;26.50;;;3.28;;
22861;SDS011;11598;50.652;6.172;2022-12-24T00:53:17;26.75;;;4.13;;
22861;SDS011;11598;50.652;6.172;2022-12-24T01:03:17;20.80;;;3.58;;
22861;SDS011;11598;50.652;6.172;2022-12-24T01:13:17;30.17;;;3.65;;
22861;SDS011;11598;50.652;6.172;2022-12-24T01:23:18;34.58;;;3.67;;
22861;SDS011;11598;50.652;6.172;2022-12-24T01:33:18;24.95;;;4.13;;
22861;SDS011;11598;50.652;6.172;2022-12-24T01:43:20;32.78;;;3.88;;
22861;SDS011;11598;50.652;6.172;2022-12-24T01:53:27;35.45;;;3.55;;
22861;SDS011;11598;50.652;6.172;2022-12-24T02:03:28;36.60;;;4.22;;
22861;SDS011;11598;50.652;6.172;2022-12-24T02:13:29;35.20;;;4.38;;
22861;SDS011;11598;50.652;6.172;2022-12-24T02:44:05;34.40;;;3.70;;
22861;SDS011;11598;50.652;6.172;2022-12-24T02:54:06;34.83;;;4.88;;
22861;SDS011;11598;50.652;6.172;2022-12-24T03:14:09;30.52;;;4.28;;
22861;SDS011;11598;50.652;6.172;2022-12-24T03:24:10;31.38;;;4.13;;
22861;SDS011;11598;50.652;6.172;2022-12-24T03:34:11;29.95;;;3.92;;
22861;SDS011;11598;50.652;6.172;2022-12-24T03:44:12;39.72;;;4.22;;
22861;SDS011;11598;50.652;6.172;2022-12-24T03:54:13;23.92;;;3.63;;
22861;SDS011;11598;50.652;6.172;2022-12-24T04:04:13;30.30;;;3.65;;
22861;SDS011;11598;50.652;6.172;2022-12-24T04:14:14;28.92;;;3.55;;
22861;SDS011;11598;50.652;6.172;2022-12-24T04:24:14;44.80;;;4.10;;
22861;SDS011;11598;50.652;6.172;2022-12-24T04:34:15;27.52;;;2.53;;
22861;SDS011;11598;50.652;6.172;2022-12-24T04:44:15;23.25;;;2.85;;
22861;SDS011;11598;50.652;6.172;2022-12-24T04:54:16;28.15;;;3.38;;
22861;SDS011;11598;50.652;6.172;2022-12-24T05:04:16;67.65;;;5.93;;
22861;SDS011;11598;50.652;6.172;2022-12-24T05:14:16;39.47;;;4.53;;
22861;SDS011;11598;50.652;6.172;2022-12-24T05:24:17;44.33;;;4.95;;
22861;SDS011;11598;50.652;6.172;2022-12-24T05:34:35;40.53;;;4.50;;
22861;SDS011;11598;50.652;6.172;2022-12-24T05:44:36;39.30;;;4.05;;
22861;SDS011;11598;50.652;6.172;2022-12-24T05:54:36;44.05;;;4.93;;
22861;SDS011;11598;50.652;6.172;2022-12-24T06:04:37;44.08;;;4.63;;
22861;SDS011;11598;50.652;6.172;2022-12-24T06:14:37;43.83;;;5.03;;
22861;SDS011;11598;50.652;6.172;2022-12-24T06:24:38;30.85;;;4.55;;
22861;SDS011;11598;50.652;6.172;2022-12-24T06:34:38;50.70;;;4.97;;
22861;SDS011;11598;50.652;6.172;2022-12-24T06:44:38;33.47;;;4.78;;
22861;SDS011;11598;50.652;6.172;2022-12-24T06:54:39;40.72;;;4.50;;
22861;SDS011;11598;50.652;6.172;2022-12-24T07:04:39;43.83;;;5.15;;
22861;SDS011;11598;50.652;6.172;2022-12-24T07:14:39;39.60;;;4.22;;
22861;SDS011;11598;50.652;6.172;2022-12-24T07:24:40;32.88;;;5.00;;
22861;SDS011;11598;50.652;6.172;2022-12-24T07:34:40;49.50;;;5.05;;
22861;SDS011;11598;50.652;6.172;2022-12-24T07:44:41;35.10;;;3.75;;
22861;SDS011;11598;50.652;6.172;2022-12-24T07:54:41;42.10;;;4.95;;
22861;SDS011;11598;50.652;6.172;2022-12-24T08:04:41;48.13;;;4.90;;
22861;SDS011;11598;50.652;6.172;2022-12-24T08:14:42;44.88;;;5.22;;
22861;SDS011;11598;50.652;6.172;2022-12-24T08:24:42;43.95;;;5.18;;
22861;SDS011;11598;50.652;6.172;2022-12-24T08:34:42;34.47;;;5.07;;
22861;SDS011;11598;50.652;6.172;2022-12-24T08:44:43;39.33;;;5.93;;
22861;SDS011;11598;50.652;6.172;2022-12-24T08:54:43;43.13;;;5.00;;
22861;SDS011;11598;50.652;6.172;2022-12-24T09:04:43;35.00;;;5.10;;
22861;SDS011;11598;50.652;6.172;2022-12-24T09:14:44;33.53;;;4.43;;
22861;SDS011;11598;50.652;6.172;2022-12-24T09:24:44;41.58;;;4.88;;
22861;SDS011;11598;50.652;6.172;2022-12-24T09:34:44;33.88;;;5.38;;
22861;SDS011;11598;50.652;6.172;2022-12-24T09:44:51;44.10;;;4.65;;
22861;SDS011;11598;50.652;6.172;2022-12-24T09:55:00;36.78;;;4.93;;
22861;SDS011;11598;50.652;6.172;2022-12-24T10:05:05;38.30;;;5.30;;
22861;SDS011;11598;50.652;6.172;2022-12-24T10:35:51;29.42;;;4.32;;
22861;SDS011;11598;50.652;6.172;2022-12-24T10:45:57;29.48;;;4.00;;
22861;SDS011;11598;50.652;6.172;2022-12-24T10:56:01;34.22;;;5.20;;
22861;SDS011;11598;50.652;6.172;2022-12-24T11:26:31;40.20;;;5.05;;
22861;SDS011;11598;50.652;6.172;2022-12-24T11:36:31;37.05;;;5.45;;
22861;SDS011;11598;50.652;6.172;2022-12-24T11:56:44;30.10;;;4.10;;
22861;SDS011;11598;50.652;6.172;2022-12-24T12:06:48;37.25;;;4.72;;
22861;SDS011;11598;50.652;6.172;2022-12-24T12:17:39;30.58;;;4.75;;
22861;SDS011;11598;50.652;6.172;2022-12-24T12:27:35;35.10;;;5.10;;
22861;SDS011;11598;50.652;6.172;2022-12-24T12:37:43;30.80;;;4.13;;
22861;SDS011;11598;50.652;6.172;2022-12-24T12:47:55;37.92;;;4.97;;
22861;SDS011;11598;50.652;6.172;2022-12-24T12:58:01;25.05;;;4.53;;
22861;SDS011;11598;50.652;6.172;2022-12-24T13:29:38;32.28;;;4.63;;
22861;SDS011;11598;50.652;6.172;2022-12-24T13:50:11;33.92;;;5.03;;
22861;SDS011;11598;50.652;6.172;2022-12-24T14:10:22;30.92;;;4.47;;
22861;SDS011;11598;50.652;6.172;2022-12-24T14:20:31;35.53;;;3.92;;
22861;SDS011;11598;50.652;6.172;2022-12-24T14:30:32;31.80;;;4.50;;
22861;SDS011;11598;50.652;6.172;2022-12-24T14:40:33;26.40;;;4.10;;
22861;SDS011;11598;50.652;6.172;2022-12-24T15:01:15;34.72;;;4.32;;
22861;SDS011;11598;50.652;6.172;2022-12-24T15:11:21;39.20;;;4.47;;
22861;SDS011;11598;50.652;6.172;2022-12-24T15:21:33;22.90;;;4.00;;
22861;SDS011;11598;50.652;6.172;2022-12-24T15:31:36;33.70;;;3.80;;
22861;SDS011;11598;50.652;6.172;2022-12-24T15:41:38;33.67;;;3.97;;
22861;SDS011;11598;50.652;6.172;2022-12-24T15:52:04;40.40;;;4.57;;
22861;SDS011;11598;50.652;6.172;2022-12-24T16:12:35;33.97;;;5.82;;
22861;SDS011;11598;50.652;6.172;2022-12-24T16:22:36;32.92;;;4.25;;
22861;SDS011;11598;50.652;6.172;2022-12-24T16:32:39;26.00;;;3.93;;
22861;SDS011;11598;50.652;6.172;2022-12-24T16:42:41;29.52;;;3.17;;
22861;SDS011;11598;50.652;6.172;2022-12-24T16:52:59;16.48;;;2.80;;
22861;SDS011;11598;50.652;6.172;2022-12-24T17:03:00;38.92;;;4.78;;
22861;SDS011;11598;50.652;6.172;2022-12-24T17:13:00;30.85;;;3.67;;
22861;SDS011;11598;50.652;6.172;2022-12-24T17:23:01;33.63;;;3.97;;
22861;SDS011;11598;50.652;6.172;2022-12-24T17:33:01;20.90;;;3.15;;
22861;SDS011;11598;50.652;6.172;2022-12-24T17:43:01;22.83;;;3.42;;
22861;SDS011;11598;50.652;6.172;2022-12-24T17:53:02;26.88;;;3.70;;
22861;SDS011;11598;50.652;6.172;2022-12-24T18:03:03;37.75;;;4.15;;
22861;SDS011;11598;50.652;6.172;2022-12-24T18:13:04;19.20;;;2.55;;
22861;SDS011;11598;50.652;6.172;2022-12-24T18:23:04;26.88;;;3.90;;
22861;SDS011;11598;50.652;6.172;2022-12-24T18:33:05;28.33;;;4.80;;
22861;SDS011;11598;50.652;6.172;2022-12-24T18:43:05;28.33;;;4.50;;
22861;SDS011;11598;50.652;6.172;2022-12-24T18:53:06;26.27;;;3.97;;
22861;SDS011;11598;50.652;6.172;2022-12-24T19:03:06;16.10;;;3.30;;
22861;SDS011;11598;50.652;6.172;2022-12-24T19:13:07;30.35;;;3.65;;
22861;SDS011;11598;50.652;6.172;2022-12-24T19:23:07;11.68;;;3.15;;
22861;SDS011;11598;50.652;6.172;2022-12-24T19:33:08;32.17;;;4.38;;
22861;SDS011;11598;50.652;6.172;2022-12-24T19:43:09;16.63;;;4.20;;
22861;SDS011;11598;50.652;6.172;2022-12-24T19:53:09;27.67;;;4.18;;
22861;SDS011;11598;50.652;6.172;2022-12-24T20:03:10;18.45;;;3.13;;
22861;SDS011;11598;50.652;6.172;2022-12-24T20:13:10;24.58;;;3.75;;
22861;SDS011;11598;50.652;6.172;2022-12-24T20:23:10;20.33;;;4.50;;
22861;SDS011;11598;50.652;6.172;2022-12-24T20:33:11;16.40;;;4.15;;
22861;SDS011;11598;50.652;6.172;2022-12-24T20:43:11;14.25;;;3.97;;
22861;SDS011;11598;50.652;6.172;2022-12-24T20:53:12;16.88;;;4.00;;
22861;SDS011;11598;50.652;6.172;2022-12-24T21:03:13;11.23;;;3.33;;
22861;SDS011;11598;50.652;6.172;2022-12-24T21:13:13;13.65;;;3.72;;
22861;SDS011;11598;50.652;6.172;2022-12-24T21:23:14;12.85;;;3.08;;
22861;SDS011;11598;50.652;6.172;2022-12-24T21:33:14;13.65;;;3.47;;
22861;SDS011;11598;50.652;6.172;2022-12-24T21:43:14;9.45;;;2.45;;
22861;SDS011;11598;50.652;6.172;2022-12-24T21:53:15;8.35;;;2.53;;
22861;SDS011;11598;50.652;6.172;2022-12-24T22:03:34;8.45;;;1.98;;
22861;SDS011;11598;50.652;6.172;2022-12-24T22:13:35;9.35;;;2.17;;
22861;SDS011;11598;50.652;6.172;2022-12-24T22:23:35;9.77;;;1.83;;
22861;SDS011;11598;50.652;6.172;2022-12-24T22:33:35;11.27;;;1.65;;
22861;SDS011;11598;50.652;6.172;2022-12-24T22:43:36;9.45;;;2.08;;
22861;SDS011;11598;50.652;6.172;2022-12-24T22:53:36;6.72;;;2.08;;
22861;SDS011;11598;50.652;6.172;2022-12-24T23:03:37;6.55;;;1.70;;
22861;SDS011;11598;50.652;6.172;2022-12-24T23:13:38;6.80;;;1.70;;
22861;SDS011;11598;50.652;6.172;2022-12-24T23:23:59;7.30;;;1.63;;
22861;SDS011;11598;50.652;6.172;2022-12-24T23:34:00;8.07;;;1.87;;
22861;SDS011;11598;50.652;6.172;2022-12-24T23:44:00;9.57;;;2.20;;
22861;SDS011;11598;50.652;6.172;2022-12-24T23:54:01;5.55;;;1.70;;
